Time,TemperatureF,DewpointF,PressureIn,WindDirection,WindDirectionDegrees,WindSpeedMPH,WindSpeedGustMPH,Humidity,HourlyPrecipIn,Conditions,Clouds,dailyrainin,SoftwareType,DateUTC
2013-08-26 00:01:00,63.3,57.0,29.94,SE,135,1.3,2.7,80,0.00,,---,0.00,VWS V14.01,2013-08-26 07:01:00,
2013-08-26 00:06:00,63.3,57.0,29.91,SSE,158,1.3,2.7,80,0.00,,---,0.00,VWS V14.01,2013-08-26 07:06:00,
2013-08-26 00:11:00,63.3,57.0,29.91,South,180,1.3,3.4,80,0.00,,---,0.00,VWS V14.01,2013-08-26 07:11:00,
2013-08-26 00:16:00,63.3,57.0,29.91,WSW,248,3.4,3.4,80,0.00,,---,0.00,VWS V14.01,2013-08-26 07:16:00,
2013-08-26 00:21:00,63.1,56.9,29.94,West,270,0.0,2.5,80,0.00,,---,0.00,VWS V14.01,2013-08-26 07:21:00,
2013-08-26 00:26:00,63.1,56.9,29.94,West,270,3.4,3.4,80,0.00,,---,0.00,VWS V14.01,2013-08-26 07:26:00,
2013-08-26 00:31:00,63.0,56.7,29.94,SE,135,2.5,2.7,80,0.00,,---,0.00,VWS V14.01,2013-08-26 07:31:00,
2013-08-26 00:36:00,63.0,56.7,29.94,South,180,1.6,2.0,80,0.00,,---,0.00,VWS V14.01,2013-08-26 07:36:00,
2013-08-26 00:41:00,63.0,56.7,29.94,South,180,0.0,2.7,80,0.00,,---,0.00,VWS V14.01,2013-08-26 07:41:00,
2013-08-26 00:46:00,63.0,56.7,29.94,South,180,2.9,2.9,80,0.00,,---,0.00,VWS V14.01,2013-08-26 07:46:00,
2013-08-26 00:51:00,63.0,56.7,29.94,West,270,0.0,2.0,80,0.00,,---,0.00,VWS V14.01,2013-08-26 07:51:00,
2013-08-26 00:56:00,62.8,56.9,29.94,West,270,1.3,1.6,81,0.00,,---,0.00,VWS V14.01,2013-08-26 07:56:00,
2013-08-26 01:01:00,62.8,56.9,29.94,South,180,3.4,3.4,81,0.00,,---,0.00,VWS V14.01,2013-08-26 08:01:00,
2013-08-26 01:06:00,62.8,56.9,29.94,West,270,3.8,3.8,81,0.00,,---,0.00,VWS V14.01,2013-08-26 08:06:00,
2013-08-26 01:11:00,62.8,56.9,29.94,South,180,1.1,2.9,81,0.00,,---,0.00,VWS V14.01,2013-08-26 08:11:00,
2013-08-26 01:16:00,62.6,56.7,29.94,West,270,4.0,4.0,81,0.00,,---,0.00,VWS V14.01,2013-08-26 08:16:00,
2013-08-26 01:21:00,62.6,56.7,29.94,West,270,3.1,3.1,81,0.00,,---,0.00,VWS V14.01,2013-08-26 08:21:00,
2013-08-26 01:26:00,62.4,56.5,29.94,West,270,1.3,1.6,81,0.00,,---,0.00,VWS V14.01,2013-08-26 08:26:00,
2013-08-26 01:31:00,62.2,56.3,29.94,West,270,3.1,4.0,81,0.00,,---,0.00,VWS V14.01,2013-08-26 08:31:00,
2013-08-26 01:36:00,62.1,56.2,29.94,South,180,1.3,2.0,81,0.00,,---,0.00,VWS V14.01,2013-08-26 08:36:00,
2013-08-26 01:41:00,62.1,56.2,29.94,NNW,338,2.7,2.7,81,0.00,,---,0.00,VWS V14.01,2013-08-26 08:41:00,
2013-08-26 01:46:00,62.2,56.3,29.94,West,270,1.6,2.2,81,0.00,,---,0.00,VWS V14.01,2013-08-26 08:46:00,
2013-08-26 01:51:00,61.7,55.8,29.94,NW,315,2.2,2.5,81,0.00,,---,0.00,VWS V14.01,2013-08-26 08:51:00,
2013-08-26 01:56:00,61.7,55.8,29.94,South,180,2.2,2.5,81,0.00,,---,0.00,VWS V14.01,2013-08-26 08:56:00,
2013-08-26 02:01:00,61.5,55.6,29.94,SE,135,0.0,2.5,81,0.00,,---,0.00,VWS V14.01,2013-08-26 09:01:00,
2013-08-26 02:06:00,61.5,56.0,29.94,North,0,0.0,2.7,82,0.00,,---,0.00,VWS V14.01,2013-08-26 09:06:00,
2013-08-26 02:11:00,61.5,56.0,29.94,WNW,292,0.0,2.5,82,0.00,,---,0.00,VWS V14.01,2013-08-26 09:11:00,
2013-08-26 02:16:00,61.7,56.2,29.94,SSE,158,0.0,1.3,82,0.00,,---,0.00,VWS V14.01,2013-08-26 09:16:00,
2013-08-26 02:21:00,61.7,56.2,29.94,South,180,1.3,1.6,82,0.00,,---,0.00,VWS V14.01,2013-08-26 09:21:00,
2013-08-26 02:26:00,61.3,55.8,29.94,South,180,2.5,2.7,82,0.00,,---,0.00,VWS V14.01,2013-08-26 09:26:00,
2013-08-26 02:31:00,61.5,56.0,29.94,West,270,2.0,2.0,82,0.00,,---,0.00,VWS V14.01,2013-08-26 09:31:00,
2013-08-26 02:36:00,61.3,55.8,29.94,South,180,1.1,2.7,82,0.00,,---,0.00,VWS V14.01,2013-08-26 09:36:00,
2013-08-26 02:41:00,61.3,55.8,29.94,WNW,292,1.3,2.5,82,0.00,,---,0.00,VWS V14.01,2013-08-26 09:41:00,
2013-08-26 02:46:00,61.7,56.2,29.94,South,180,1.6,2.0,82,0.00,,---,0.00,VWS V14.01,2013-08-26 09:46:00,
2013-08-26 02:51:00,61.5,56.0,29.94,West,270,0.0,2.5,82,0.00,,---,0.00,VWS V14.01,2013-08-26 09:51:00,
2013-08-26 02:56:00,61.7,56.2,29.94,WSW,248,0.0,0.0,82,0.00,,---,0.00,VWS V14.01,2013-08-26 09:56:00,
2013-08-26 03:01:00,61.3,55.8,29.94,South,180,1.1,2.5,82,0.00,,---,0.00,VWS V14.01,2013-08-26 10:01:00,
2013-08-26 03:06:00,61.5,56.0,29.94,West,270,0.9,2.0,82,0.00,,---,0.00,VWS V14.01,2013-08-26 10:06:00,
2013-08-26 03:11:00,61.3,55.8,29.94,South,180,1.3,1.6,82,0.00,,---,0.00,VWS V14.01,2013-08-26 10:11:00,
2013-08-26 03:16:00,61.5,56.0,29.94,SW,225,0.0,4.7,82,0.00,,---,0.00,VWS V14.01,2013-08-26 10:16:00,
2013-08-26 03:22:00,61.5,56.0,29.94,West,270,2.2,3.6,82,0.00,,---,0.00,VWS V14.01,2013-08-26 10:22:00,
2013-08-26 03:27:00,61.5,56.0,29.94,South,180,2.0,3.4,82,0.00,,---,0.00,VWS V14.01,2013-08-26 10:27:00,
2013-08-26 03:32:00,61.5,56.0,29.94,South,180,1.1,1.6,82,0.00,,---,0.00,VWS V14.01,2013-08-26 10:32:00,
2013-08-26 03:37:00,61.7,56.2,29.94,NE,45,0.0,2.7,82,0.00,,---,0.00,VWS V14.01,2013-08-26 10:37:00,
2013-08-26 03:42:00,61.5,56.0,29.94,South,180,0.9,2.5,82,0.00,,---,0.00,VWS V14.01,2013-08-26 10:42:00,
2013-08-26 03:47:00,61.3,55.8,29.94,SSE,158,1.1,2.5,82,0.00,,---,0.00,VWS V14.01,2013-08-26 10:47:00,
2013-08-26 03:52:00,61.2,55.6,29.94,South,180,1.3,1.3,82,0.00,,---,0.00,VWS V14.01,2013-08-26 10:52:00,
2013-08-26 03:57:00,61.2,55.6,29.94,South,180,2.0,2.2,82,0.00,,---,0.00,VWS V14.01,2013-08-26 10:57:00,
2013-08-26 04:02:00,61.2,56.0,29.94,East,90,0.0,1.6,83,0.00,,---,0.00,VWS V14.01,2013-08-26 11:02:00,
2013-08-26 04:07:00,61.3,56.1,29.94,SE,135,1.6,1.6,83,0.00,,---,0.00,VWS V14.01,2013-08-26 11:07:00,
2013-08-26 04:12:00,60.8,55.6,29.94,West,270,0.9,0.9,83,0.00,,---,0.00,VWS V14.01,2013-08-26 11:12:00,
2013-08-26 04:17:00,61.0,56.1,29.94,West,270,1.3,1.6,84,0.00,,---,0.00,VWS V14.01,2013-08-26 11:17:00,
2013-08-26 04:22:00,61.0,56.1,29.97,West,270,0.0,0.9,84,0.00,,---,0.00,VWS V14.01,2013-08-26 11:22:00,
2013-08-26 04:27:00,60.6,55.8,29.97,West,270,1.1,2.5,84,0.00,,---,0.00,VWS V14.01,2013-08-26 11:27:00,
2013-08-26 04:32:00,60.4,55.6,29.97,West,270,1.3,3.1,84,0.00,,---,0.00,VWS V14.01,2013-08-26 11:32:00,
2013-08-26 04:37:00,60.4,55.9,29.94,NNW,338,1.1,2.2,85,0.00,,---,0.00,VWS V14.01,2013-08-26 11:37:00,
2013-08-26 04:42:00,60.4,55.9,29.94,West,270,1.1,2.0,85,0.00,,---,0.00,VWS V14.01,2013-08-26 11:42:00,
2013-08-26 04:47:00,60.3,56.1,29.94,West,270,1.3,1.3,86,0.00,,---,0.00,VWS V14.01,2013-08-26 11:47:00,
2013-08-26 04:52:00,60.4,56.2,29.94,West,270,0.0,1.6,86,0.00,,---,0.00,VWS V14.01,2013-08-26 11:52:00,
2013-08-26 04:57:00,60.1,55.9,29.94,West,270,0.0,0.0,86,0.00,,---,0.00,VWS V14.01,2013-08-26 11:57:00,
2013-08-26 05:02:00,60.3,56.4,29.94,West,270,0.9,1.6,87,0.00,,---,0.00,VWS V14.01,2013-08-26 12:02:00,
2013-08-26 05:07:00,60.1,56.2,29.97,West,270,0.0,1.3,87,0.00,,---,0.00,VWS V14.01,2013-08-26 12:07:00,
2013-08-26 05:12:00,60.1,56.2,29.97,West,270,0.0,0.0,87,0.00,,---,0.00,VWS V14.01,2013-08-26 12:12:00,
2013-08-26 05:17:00,60.1,56.2,29.97,South,180,2.5,2.5,87,0.00,,---,0.00,VWS V14.01,2013-08-26 12:17:00,
2013-08-26 05:22:00,60.1,56.5,29.97,West,270,0.0,2.0,88,0.00,,---,0.00,VWS V14.01,2013-08-26 12:22:00,
2013-08-26 05:27:00,60.1,56.5,29.97,South,180,1.6,1.6,88,0.00,,---,0.00,VWS V14.01,2013-08-26 12:27:00,
2013-08-26 05:32:00,60.3,56.7,29.97,South,180,0.0,0.0,88,0.00,,---,0.00,VWS V14.01,2013-08-26 12:32:00,
2013-08-26 05:37:00,60.3,56.4,29.97,South,180,0.0,0.0,87,0.00,,---,0.00,VWS V14.01,2013-08-26 12:37:00,
2013-08-26 05:42:00,60.1,56.5,29.97,SSE,158,0.0,0.0,88,0.00,,---,0.00,VWS V14.01,2013-08-26 12:42:00,
2013-08-26 05:47:00,60.3,56.7,29.97,South,180,0.0,2.2,88,0.00,,---,0.00,VWS V14.01,2013-08-26 12:47:00,
2013-08-26 05:52:00,60.4,56.9,29.97,South,180,0.0,0.0,88,0.00,,---,0.00,VWS V14.01,2013-08-26 12:52:00,
2013-08-26 05:57:00,60.3,56.7,29.97,SSE,158,1.1,1.1,88,0.00,,---,0.00,VWS V14.01,2013-08-26 12:57:00,
2013-08-26 06:02:00,60.3,56.7,29.97,South,180,0.0,1.3,88,0.00,,---,0.00,VWS V14.01,2013-08-26 13:02:00,
2013-08-26 06:07:00,60.3,56.7,29.97,South,180,0.0,1.6,88,0.00,,---,0.00,VWS V14.01,2013-08-26 13:07:00,
2013-08-26 06:12:00,60.4,56.9,29.97,South,180,0.0,1.6,88,0.00,,---,0.00,VWS V14.01,2013-08-26 13:12:00,
2013-08-26 06:17:00,60.3,56.7,29.97,South,180,0.0,1.1,88,0.00,,---,0.00,VWS V14.01,2013-08-26 13:17:00,
2013-08-26 06:22:00,60.1,56.5,29.97,SW,225,0.0,0.0,88,0.00,,---,0.00,VWS V14.01,2013-08-26 13:22:00,
2013-08-26 06:27:00,60.3,56.7,29.97,SW,225,0.0,0.0,88,0.00,,---,0.00,VWS V14.01,2013-08-26 13:27:00,
2013-08-26 06:32:00,60.1,56.5,29.97,SW,225,0.0,2.2,88,0.00,,---,0.00,VWS V14.01,2013-08-26 13:32:00,
2013-08-26 06:37:00,59.9,56.7,29.97,WNW,292,0.0,0.0,89,0.00,,---,0.00,VWS V14.01,2013-08-26 13:37:00,
2013-08-26 06:42:00,60.1,56.8,29.97,West,270,0.0,0.0,89,0.00,,---,0.00,VWS V14.01,2013-08-26 13:42:00,
2013-08-26 06:47:00,60.4,57.2,29.97,West,270,0.0,0.9,89,0.00,,---,0.00,VWS V14.01,2013-08-26 13:47:00,
2013-08-26 06:52:00,60.4,57.2,29.97,South,180,0.0,0.0,89,0.00,,---,0.00,VWS V14.01,2013-08-26 13:52:00,
2013-08-26 06:57:00,60.3,57.0,29.97,West,270,0.0,0.0,89,0.00,,---,0.00,VWS V14.01,2013-08-26 13:57:00,
2013-08-26 07:02:00,60.3,57.0,29.97,West,270,1.1,1.1,89,0.00,,---,0.00,VWS V14.01,2013-08-26 14:02:00,
2013-08-26 07:07:00,60.4,57.2,29.97,West,270,0.0,1.1,89,0.00,,---,0.00,VWS V14.01,2013-08-26 14:07:00,
2013-08-26 07:12:00,60.1,56.8,29.97,West,270,1.6,1.6,89,0.00,,---,0.00,VWS V14.01,2013-08-26 14:12:00,
2013-08-26 07:17:00,60.1,56.8,29.97,West,270,0.0,1.6,89,0.00,,---,0.00,VWS V14.01,2013-08-26 14:17:00,
2013-08-26 07:22:00,60.6,57.4,29.97,West,270,0.0,0.0,89,0.00,,---,0.00,VWS V14.01,2013-08-26 14:22:00,
2013-08-26 07:27:00,60.6,57.4,29.97,South,180,0.0,0.0,89,0.00,,---,0.00,VWS V14.01,2013-08-26 14:27:00,
2013-08-26 07:32:00,60.6,57.4,29.97,West,270,0.0,1.6,89,0.00,,---,0.00,VWS V14.01,2013-08-26 14:32:00,
2013-08-26 07:37:00,60.8,57.5,29.97,North,0,0.0,0.0,89,0.00,,---,0.00,VWS V14.01,2013-08-26 14:37:00,
2013-08-26 07:42:00,61.0,57.7,29.97,West,270,0.0,0.9,89,0.00,,---,0.00,VWS V14.01,2013-08-26 14:42:00,
2013-08-26 07:47:00,61.0,57.4,29.97,West,270,0.0,1.3,88,0.00,,---,0.00,VWS V14.01,2013-08-26 14:47:00,
2013-08-26 07:52:00,61.0,57.4,30.00,WNW,292,0.0,1.1,88,0.00,,---,0.00,VWS V14.01,2013-08-26 14:52:00,
2013-08-26 07:57:00,60.8,57.2,30.00,WNW,292,1.3,2.0,88,0.00,,---,0.00,VWS V14.01,2013-08-26 14:57:00,
2013-08-26 08:02:00,60.4,56.9,30.00,WNW,292,2.2,2.2,88,0.00,,---,0.00,VWS V14.01,2013-08-26 15:02:00,
2013-08-26 08:07:00,60.6,57.0,30.00,WNW,292,2.7,2.7,88,0.00,,---,0.00,VWS V14.01,2013-08-26 15:07:00,
2013-08-26 08:12:00,60.6,57.0,30.00,South,180,0.0,2.9,88,0.00,,---,0.00,VWS V14.01,2013-08-26 15:12:00,
2013-08-26 08:17:00,61.0,57.4,30.00,NW,315,0.0,2.2,88,0.00,,---,0.00,VWS V14.01,2013-08-26 15:17:00,
2013-08-26 08:22:00,61.0,57.4,30.00,West,270,1.1,1.1,88,0.00,,---,0.00,VWS V14.01,2013-08-26 15:22:00,
2013-08-26 08:27:00,61.2,57.6,30.00,WNW,292,0.0,2.2,88,0.00,,---,0.00,VWS V14.01,2013-08-26 15:27:00,
2013-08-26 08:32:00,61.0,57.4,30.00,South,180,0.0,1.3,88,0.00,,---,0.00,VWS V14.01,2013-08-26 15:32:00,
2013-08-26 08:37:00,61.2,57.6,30.00,NW,315,1.6,2.2,88,0.00,,---,0.00,VWS V14.01,2013-08-26 15:37:00,
2013-08-26 08:42:00,61.3,57.8,30.00,NW,315,3.4,4.9,88,0.00,,---,0.00,VWS V14.01,2013-08-26 15:42:00,
2013-08-26 08:47:00,61.3,57.8,30.00,West,270,3.8,3.8,88,0.00,,---,0.00,VWS V14.01,2013-08-26 15:47:00,
2013-08-26 08:52:00,61.2,57.6,30.00,WNW,292,1.3,4.3,88,0.00,,---,0.00,VWS V14.01,2013-08-26 15:52:00,
2013-08-26 08:57:00,61.3,57.8,30.00,West,270,2.7,2.7,88,0.00,,---,0.00,VWS V14.01,2013-08-26 15:57:00,
2013-08-26 09:02:00,61.3,57.4,30.00,West,270,1.3,2.7,87,0.00,,---,0.00,VWS V14.01,2013-08-26 16:02:00,
2013-08-26 09:07:00,61.2,57.6,30.00,NW,315,1.3,2.7,88,0.00,,---,0.00,VWS V14.01,2013-08-26 16:07:00,
2013-08-26 09:12:00,61.3,57.4,30.00,NW,315,0.0,2.0,87,0.00,,---,0.00,VWS V14.01,2013-08-26 16:12:00,
2013-08-26 09:17:00,61.5,57.6,30.00,North,0,2.0,2.0,87,0.00,,---,0.00,VWS V14.01,2013-08-26 16:17:00,
2013-08-26 09:22:00,61.7,57.8,30.00,NW,315,2.2,2.2,87,0.00,,---,0.00,VWS V14.01,2013-08-26 16:22:00,
2013-08-26 09:27:00,61.9,58.0,30.00,NNE,22,1.1,3.1,87,0.00,,---,0.00,VWS V14.01,2013-08-26 16:27:00,
2013-08-26 09:32:00,62.2,58.3,30.00,NW,315,2.7,2.7,87,0.00,,---,0.00,VWS V14.01,2013-08-26 16:32:00,
2013-08-26 09:37:00,62.4,58.5,30.00,NW,315,3.6,4.7,87,0.00,,---,0.00,VWS V14.01,2013-08-26 16:37:00,
2013-08-26 09:42:00,62.4,58.5,30.00,NW,315,4.0,4.3,87,0.00,,---,0.00,VWS V14.01,2013-08-26 16:42:00,
2013-08-26 09:47:00,62.6,58.4,30.00,WNW,292,3.1,3.4,86,0.00,,---,0.00,VWS V14.01,2013-08-26 16:47:00,
2013-08-26 09:52:00,62.4,58.2,30.00,NW,315,5.6,5.6,86,0.00,,---,0.00,VWS V14.01,2013-08-26 16:52:00,
2013-08-26 09:57:00,62.4,58.2,30.00,SW,225,1.1,5.6,86,0.00,,---,0.00,VWS V14.01,2013-08-26 16:57:00,
2013-08-26 10:02:00,62.6,58.4,30.00,NNW,338,2.7,2.7,86,0.00,,---,0.00,VWS V14.01,2013-08-26 17:02:00,
2013-08-26 10:07:00,63.1,58.9,30.00,NNW,338,3.1,3.1,86,0.00,,---,0.00,VWS V14.01,2013-08-26 17:07:00,
2013-08-26 10:12:00,63.5,58.9,30.00,NNE,22,0.0,3.6,85,0.00,,---,0.00,VWS V14.01,2013-08-26 17:12:00,
2013-08-26 10:17:00,63.3,58.4,30.00,WNW,292,2.5,4.0,84,0.00,,---,0.00,VWS V14.01,2013-08-26 17:17:00,
2013-08-26 10:22:00,63.9,58.9,30.00,NW,315,4.3,5.8,84,0.00,,---,0.00,VWS V14.01,2013-08-26 17:22:00,
2013-08-26 10:27:00,64.2,59.0,30.00,WNW,292,2.9,5.4,83,0.00,,---,0.00,VWS V14.01,2013-08-26 17:27:00,
2013-08-26 10:32:00,64.4,59.1,30.00,South,180,2.5,2.9,83,0.00,,---,0.00,VWS V14.01,2013-08-26 17:32:00,
2013-08-26 10:38:00,64.6,59.3,30.00,ESE,112,1.3,2.7,83,0.00,,---,0.00,VWS V14.01,2013-08-26 17:38:00,
2013-08-26 10:43:00,64.6,59.0,30.00,NW,315,0.0,1.6,82,0.00,,---,0.00,VWS V14.01,2013-08-26 17:43:00,
2013-08-26 10:48:00,64.6,59.0,30.00,South,180,3.4,3.4,82,0.00,,---,0.00,VWS V14.01,2013-08-26 17:48:00,
2013-08-26 10:53:00,65.1,59.2,30.00,West,270,2.9,4.9,81,0.00,,---,0.00,VWS V14.01,2013-08-26 17:53:00,
2013-08-26 10:58:00,65.5,59.5,30.00,SW,225,1.6,3.4,81,0.00,,---,0.00,VWS V14.01,2013-08-26 17:58:00,
2013-08-26 11:03:00,65.7,59.7,30.00,SSE,158,2.0,2.7,81,0.00,,---,0.00,VWS V14.01,2013-08-26 18:03:00,
2013-08-26 11:08:00,66.2,59.9,30.00,North,0,3.1,3.1,80,0.00,,---,0.00,VWS V14.01,2013-08-26 18:08:00,
2013-08-26 11:13:00,66.4,59.7,30.00,SSE,158,1.1,1.1,79,0.00,,---,0.00,VWS V14.01,2013-08-26 18:13:00,
2013-08-26 11:18:00,66.9,59.8,29.97,West,270,3.4,4.3,78,0.00,,---,0.00,VWS V14.01,2013-08-26 18:18:00,
2013-08-26 11:23:00,67.3,60.2,29.97,North,0,1.1,1.1,78,0.00,,---,0.00,VWS V14.01,2013-08-26 18:23:00,
2013-08-26 11:28:00,67.5,60.0,29.97,South,180,2.0,2.0,77,0.00,,---,0.00,VWS V14.01,2013-08-26 18:28:00,
2013-08-26 11:33:00,67.8,60.0,29.97,NNE,22,1.6,1.6,76,0.00,,---,0.00,VWS V14.01,2013-08-26 18:33:00,
2013-08-26 11:38:00,68.2,60.3,29.97,SSE,158,0.0,0.0,76,0.00,,---,0.00,VWS V14.01,2013-08-26 18:38:00,
2013-08-26 11:43:00,68.5,60.3,29.97,West,270,2.7,2.7,75,0.00,,---,0.00,VWS V14.01,2013-08-26 18:43:00,
2013-08-26 11:48:00,68.9,59.5,29.97,NNW,338,2.9,2.9,72,0.00,,---,0.00,VWS V14.01,2013-08-26 18:48:00,
2013-08-26 11:53:00,69.1,60.1,29.97,East,90,2.5,5.4,73,0.00,,---,0.00,VWS V14.01,2013-08-26 18:53:00,
2013-08-26 11:58:00,69.4,60.0,29.97,NNW,338,3.8,5.4,72,0.00,,---,0.00,VWS V14.01,2013-08-26 18:58:00,
2013-08-26 12:03:00,69.8,60.4,29.97,NW,315,4.9,4.9,72,0.00,,---,0.00,VWS V14.01,2013-08-26 19:03:00,
2013-08-26 12:08:00,70.0,60.2,29.97,WNW,292,2.0,4.9,71,0.00,,---,0.00,VWS V14.01,2013-08-26 19:08:00,
2013-08-26 12:13:00,70.5,60.7,29.97,West,270,3.8,5.8,71,0.00,,---,0.00,VWS V14.01,2013-08-26 19:13:00,
2013-08-26 12:18:00,70.7,60.5,29.97,NW,315,2.7,6.5,70,0.00,,---,0.00,VWS V14.01,2013-08-26 19:18:00,
2013-08-26 12:23:00,70.9,60.2,29.97,NNW,338,3.4,3.4,69,0.00,,---,0.00,VWS V14.01,2013-08-26 19:23:00,
2013-08-26 12:28:00,71.8,60.7,29.97,WNW,292,6.5,6.5,68,0.00,,---,0.00,VWS V14.01,2013-08-26 19:28:00,
2013-08-26 12:33:00,71.8,60.2,29.94,NW,315,5.8,5.8,67,0.00,,---,0.00,VWS V14.01,2013-08-26 19:33:00,
2013-08-26 12:38:00,72.0,60.0,29.94,South,180,4.0,4.0,66,0.00,,---,0.00,VWS V14.01,2013-08-26 19:38:00,
2013-08-26 12:43:00,72.3,59.9,29.94,NNW,338,0.0,0.0,65,0.00,,---,0.00,VWS V14.01,2013-08-26 19:43:00,
2013-08-26 12:48:00,72.9,60.8,29.94,WNW,292,1.6,1.6,66,0.00,,---,0.00,VWS V14.01,2013-08-26 19:48:00,
2013-08-26 12:53:00,72.9,60.8,29.94,West,270,2.7,2.7,66,0.00,,---,0.00,VWS V14.01,2013-08-26 19:53:00,
2013-08-26 12:58:00,73.2,60.8,29.94,WNW,292,2.0,4.7,65,0.00,,---,0.00,VWS V14.01,2013-08-26 19:58:00,
2013-08-26 13:03:00,73.9,60.6,29.94,NW,315,6.5,6.5,63,0.00,,---,0.00,VWS V14.01,2013-08-26 20:03:00,
2013-08-26 13:08:00,73.8,60.4,29.94,NNE,22,3.8,3.8,63,0.00,,---,0.00,VWS V14.01,2013-08-26 20:08:00,
2013-08-26 13:13:00,74.5,60.2,29.94,South,180,3.4,3.4,61,0.00,,---,0.00,VWS V14.01,2013-08-26 20:13:00,
2013-08-26 13:18:00,74.5,60.2,29.94,South,180,2.9,2.9,61,0.00,,---,0.00,VWS V14.01,2013-08-26 20:18:00,
2013-08-26 13:23:00,75.0,60.7,29.94,WNW,292,5.4,5.4,61,0.00,,---,0.00,VWS V14.01,2013-08-26 20:23:00,
2013-08-26 13:28:00,75.6,61.2,29.94,NW,315,0.0,5.4,61,0.00,,---,0.00,VWS V14.01,2013-08-26 20:28:00,
2013-08-26 13:33:00,75.9,61.5,29.94,West,270,1.3,1.3,61,0.00,,---,0.00,VWS V14.01,2013-08-26 20:33:00,
2013-08-26 13:38:00,76.1,60.3,29.94,West,270,2.9,2.9,58,0.00,,---,0.00,VWS V14.01,2013-08-26 20:38:00,
2013-08-26 13:43:00,75.9,60.1,29.94,NW,315,4.0,4.0,58,0.00,,---,0.00,VWS V14.01,2013-08-26 20:43:00,
2013-08-26 13:48:00,76.5,60.6,29.94,NW,315,6.5,6.5,58,0.00,,---,0.00,VWS V14.01,2013-08-26 20:48:00,
2013-08-26 13:53:00,77.2,61.3,29.94,NNW,338,4.0,4.0,58,0.00,,---,0.00,VWS V14.01,2013-08-26 20:53:00,
2013-08-26 13:58:00,77.5,60.6,29.94,WNW,292,4.9,4.9,56,0.00,,---,0.00,VWS V14.01,2013-08-26 20:58:00,
2013-08-26 14:03:00,77.5,60.6,29.94,South,180,4.0,4.0,56,0.00,,---,0.00,VWS V14.01,2013-08-26 21:03:00,
2013-08-26 14:08:00,78.1,58.5,29.94,WNW,292,2.5,2.5,51,0.00,,---,0.00,VWS V14.01,2013-08-26 21:08:00,
2013-08-26 14:13:00,78.6,60.6,29.94,West,270,7.8,7.8,54,0.00,,---,0.00,VWS V14.01,2013-08-26 21:13:00,
2013-08-26 14:18:00,78.8,60.8,29.91,South,180,5.4,5.4,54,0.00,,---,0.00,VWS V14.01,2013-08-26 21:18:00,
2013-08-26 14:23:00,78.8,60.8,29.91,West,270,2.5,2.5,54,0.00,,---,0.00,VWS V14.01,2013-08-26 21:23:00,
2013-08-26 14:28:00,79.5,61.4,29.91,South,180,3.8,5.8,54,0.00,,---,0.00,VWS V14.01,2013-08-26 21:28:00,
2013-08-26 14:33:00,79.7,60.5,29.91,West,270,5.6,5.6,52,0.00,,---,0.00,VWS V14.01,2013-08-26 21:33:00,
2013-08-26 14:38:00,80.1,60.3,29.91,South,180,5.8,5.8,51,0.00,,---,0.00,VWS V14.01,2013-08-26 21:38:00,
2013-08-26 14:43:00,80.1,60.9,29.91,South,180,2.5,3.4,52,0.00,,---,0.00,VWS V14.01,2013-08-26 21:43:00,
2013-08-26 14:48:00,80.2,61.0,29.91,SE,135,3.1,3.1,52,0.00,,---,0.00,VWS V14.01,2013-08-26 21:48:00,
2013-08-26 14:53:00,80.4,61.2,29.91,South,180,4.9,6.5,52,0.00,,---,0.00,VWS V14.01,2013-08-26 21:53:00,
2013-08-26 14:58:00,81.0,61.7,29.91,South,180,5.6,5.6,52,0.00,,---,0.00,VWS V14.01,2013-08-26 21:58:00,
2013-08-26 15:03:00,81.0,59.4,29.91,SSE,158,4.0,4.0,48,0.00,,---,0.00,VWS V14.01,2013-08-26 22:03:00,
2013-08-26 15:08:00,81.3,59.8,29.91,West,270,2.5,2.5,48,0.00,,---,0.00,VWS V14.01,2013-08-26 22:08:00,
2013-08-26 15:13:00,81.7,60.7,29.91,South,180,3.6,3.6,49,0.00,,---,0.00,VWS V14.01,2013-08-26 22:13:00,
2013-08-26 15:18:00,81.7,59.5,29.91,WNW,292,3.6,3.6,47,0.00,,---,0.00,VWS V14.01,2013-08-26 22:18:00,
2013-08-26 15:23:00,81.3,59.2,29.91,West,270,4.5,4.5,47,0.00,,---,0.00,VWS V14.01,2013-08-26 22:23:00,
2013-08-26 15:28:00,81.9,59.7,29.91,WNW,292,3.1,3.1,47,0.00,,---,0.00,VWS V14.01,2013-08-26 22:28:00,
2013-08-26 15:33:00,82.2,60.6,29.91,WNW,292,2.9,3.4,48,0.00,,---,0.00,VWS V14.01,2013-08-26 22:33:00,
2013-08-26 15:38:00,82.2,60.0,29.91,West,270,2.2,4.9,47,0.00,,---,0.00,VWS V14.01,2013-08-26 22:38:00,
2013-08-26 15:43:00,82.6,60.3,29.91,South,180,3.6,3.6,47,0.00,,---,0.00,VWS V14.01,2013-08-26 22:43:00,
2013-08-26 15:48:00,82.6,60.3,29.91,North,0,3.4,3.4,47,0.00,,---,0.00,VWS V14.01,2013-08-26 22:48:00,
2013-08-26 15:53:00,82.6,59.7,29.91,East,90,3.4,3.4,46,0.00,,---,0.00,VWS V14.01,2013-08-26 22:53:00,
2013-08-26 15:58:00,82.4,59.0,29.91,South,180,1.6,1.6,45,0.00,,---,0.00,VWS V14.01,2013-08-26 22:58:00,
2013-08-26 16:03:00,82.4,59.0,29.91,West,270,2.5,2.9,45,0.00,,---,0.00,VWS V14.01,2013-08-26 23:03:00,
2013-08-26 16:08:00,82.4,59.0,29.91,SE,135,7.6,7.6,45,0.00,,---,0.00,VWS V14.01,2013-08-26 23:08:00,
2013-08-26 16:13:00,82.8,59.3,29.91,West,270,9.8,9.8,45,0.00,,---,0.00,VWS V14.01,2013-08-26 23:13:00,
2013-08-26 16:18:00,82.6,59.1,29.91,West,270,3.6,3.6,45,0.00,,---,0.00,VWS V14.01,2013-08-26 23:18:00,
2013-08-26 16:23:00,82.8,59.3,29.91,SSE,158,2.7,2.7,45,0.00,,---,0.00,VWS V14.01,2013-08-26 23:23:00,
2013-08-26 16:28:00,82.8,58.7,29.91,South,180,2.9,2.9,44,0.00,,---,0.00,VWS V14.01,2013-08-26 23:28:00,
2013-08-26 16:33:00,82.6,58.5,29.91,SSE,158,4.9,4.9,44,0.00,,---,0.00,VWS V14.01,2013-08-26 23:33:00,
2013-08-26 16:38:00,82.4,59.0,29.91,ENE,68,2.0,2.0,45,0.00,,---,0.00,VWS V14.01,2013-08-26 23:38:00,
2013-08-26 16:43:00,82.0,58.6,29.91,ESE,112,3.6,3.6,45,0.00,,---,0.00,VWS V14.01,2013-08-26 23:43:00,
2013-08-26 16:48:00,82.0,58.6,29.91,East,90,4.0,4.0,45,0.00,,---,0.00,VWS V14.01,2013-08-26 23:48:00,
2013-08-26 16:53:00,81.5,58.1,29.91,SE,135,2.9,2.9,45,0.00,,---,0.00,VWS V14.01,2013-08-26 23:53:00,
2013-08-26 16:58:00,81.5,58.1,29.91,South,180,2.2,2.7,45,0.00,,---,0.00,VWS V14.01,2013-08-26 23:58:00,
2013-08-26 17:03:00,81.1,57.8,29.91,SE,135,1.6,1.6,45,0.00,,---,0.00,VWS V14.01,2013-08-27 00:03:00,
2013-08-26 17:08:00,80.8,57.5,29.91,South,180,3.8,3.8,45,0.00,,---,0.00,VWS V14.01,2013-08-27 00:08:00,
2013-08-26 17:13:00,80.6,56.7,29.91,South,180,6.9,6.9,44,0.00,,---,0.00,VWS V14.01,2013-08-27 00:13:00,
2013-08-26 17:18:00,80.2,57.0,29.91,SE,135,3.1,3.1,45,0.00,,---,0.00,VWS V14.01,2013-08-27 00:18:00,
2013-08-26 17:23:00,80.1,56.8,29.91,South,180,3.1,3.1,45,0.00,,---,0.00,VWS V14.01,2013-08-27 00:23:00,
2013-08-26 17:28:00,79.9,56.7,29.91,South,180,3.1,3.1,45,0.00,,---,0.00,VWS V14.01,2013-08-27 00:28:00,
2013-08-26 17:33:00,79.9,56.7,29.91,South,180,3.8,3.8,45,0.00,,---,0.00,VWS V14.01,2013-08-27 00:33:00,
2013-08-26 17:38:00,79.5,56.3,29.91,SSE,158,2.9,2.9,45,0.00,,---,0.00,VWS V14.01,2013-08-27 00:38:00,
2013-08-26 17:43:00,79.2,56.0,29.91,SSE,158,6.3,6.3,45,0.00,,---,0.00,VWS V14.01,2013-08-27 00:43:00,
2013-08-26 17:48:00,78.6,55.5,29.88,SE,135,6.0,6.0,45,0.00,,---,0.00,VWS V14.01,2013-08-27 00:48:00,
2013-08-26 17:53:00,78.3,55.2,29.88,ESE,112,5.4,5.6,45,0.00,,---,0.00,VWS V14.01,2013-08-27 00:53:00,
2013-08-26 17:58:00,77.5,54.5,29.88,South,180,3.1,3.1,45,0.00,,---,0.00,VWS V14.01,2013-08-27 00:58:00,
2013-08-26 18:03:00,77.0,54.1,29.88,South,180,1.6,4.9,45,0.00,,---,0.00,VWS V14.01,2013-08-27 01:03:00,
2013-08-26 18:08:00,77.0,54.1,29.88,SSE,158,1.6,4.9,45,0.00,,---,0.00,VWS V14.01,2013-08-27 01:08:00,
2013-08-26 18:14:00,75.7,53.5,29.88,ESE,112,4.3,4.3,46,0.00,,---,0.00,VWS V14.01,2013-08-27 01:14:00,
2013-08-26 18:19:00,75.7,53.5,29.88,SE,135,8.1,8.1,46,0.00,,---,0.00,VWS V14.01,2013-08-27 01:19:00,
2013-08-26 18:24:00,74.8,53.3,29.88,South,180,1.6,5.8,47,0.00,,---,0.00,VWS V14.01,2013-08-27 01:24:00,
2013-08-26 18:29:00,74.8,53.3,29.88,West,270,2.9,3.1,47,0.00,,---,0.00,VWS V14.01,2013-08-27 01:29:00,
2013-08-26 18:34:00,74.8,53.3,29.88,SE,135,3.6,3.6,47,0.00,,---,0.00,VWS V14.01,2013-08-27 01:34:00,
2013-08-26 18:39:00,74.8,53.3,29.88,East,90,2.7,6.5,47,0.00,,---,0.00,VWS V14.01,2013-08-27 01:39:00,
2013-08-26 18:44:00,73.2,52.9,29.88,South,180,3.1,3.1,49,0.00,,---,0.00,VWS V14.01,2013-08-27 01:44:00,
2013-08-26 18:49:00,72.5,52.8,29.88,SSE,158,3.4,3.4,50,0.00,,---,0.00,VWS V14.01,2013-08-27 01:49:00,
2013-08-26 18:54:00,72.1,52.5,29.88,South,180,1.6,4.3,50,0.00,,---,0.00,VWS V14.01,2013-08-27 01:54:00,
2013-08-26 18:59:00,72.1,52.5,29.88,ESE,112,3.1,3.1,50,0.00,,---,0.00,VWS V14.01,2013-08-27 01:59:00,
2013-08-26 19:04:00,72.1,52.5,29.88,SE,135,1.6,4.3,50,0.00,,---,0.00,VWS V14.01,2013-08-27 02:04:00,
2013-08-26 19:09:00,72.1,52.5,29.88,South,180,3.8,3.8,50,0.00,,---,0.00,VWS V14.01,2013-08-27 02:09:00,
2013-08-26 19:14:00,70.2,51.7,29.88,South,180,2.5,2.5,52,0.00,,---,0.00,VWS V14.01,2013-08-27 02:14:00,
2013-08-26 19:19:00,69.6,51.8,29.88,SSE,158,1.6,1.6,53,0.00,,---,0.00,VWS V14.01,2013-08-27 02:19:00,
2013-08-26 19:24:00,69.6,51.8,29.88,South,180,1.1,2.0,53,0.00,,---,0.00,VWS V14.01,2013-08-27 02:24:00,
2013-08-26 19:29:00,69.1,52.2,29.88,NW,315,0.0,2.7,55,0.00,,---,0.00,VWS V14.01,2013-08-27 02:29:00,
2013-08-26 19:34:00,69.1,52.2,29.88,South,180,3.8,3.8,55,0.00,,---,0.00,VWS V14.01,2013-08-27 02:34:00,
2013-08-26 19:39:00,68.4,52.1,29.88,South,180,1.1,2.0,56,0.00,,---,0.00,VWS V14.01,2013-08-27 02:39:00,
2013-08-26 19:44:00,68.0,51.7,29.88,SSE,158,0.0,2.0,56,0.00,,---,0.00,VWS V14.01,2013-08-27 02:44:00,
2013-08-26 19:49:00,67.6,52.3,29.88,South,180,0.0,0.0,58,0.00,,---,0.00,VWS V14.01,2013-08-27 02:49:00,
2013-08-26 19:54:00,67.3,52.0,29.88,South,180,0.9,2.0,58,0.00,,---,0.00,VWS V14.01,2013-08-27 02:54:00,
2013-08-26 19:59:00,67.1,52.3,29.88,South,180,2.2,2.2,59,0.00,,---,0.00,VWS V14.01,2013-08-27 02:59:00,
2013-08-26 20:04:00,66.9,52.1,29.88,South,180,0.0,0.0,59,0.00,,---,0.00,VWS V14.01,2013-08-27 03:04:00,
2013-08-26 20:09:00,66.6,52.3,29.88,South,180,0.0,0.0,60,0.00,,---,0.00,VWS V14.01,2013-08-27 03:09:00,
2013-08-26 20:14:00,66.2,51.9,29.88,South,180,0.0,0.0,60,0.00,,---,0.00,VWS V14.01,2013-08-27 03:14:00,
2013-08-26 20:19:00,66.0,52.2,29.88,South,180,0.0,0.0,61,0.00,,---,0.00,VWS V14.01,2013-08-27 03:19:00,
2013-08-26 20:24:00,65.7,51.9,29.88,SSE,158,1.3,2.2,61,0.00,,---,0.00,VWS V14.01,2013-08-27 03:24:00,
2013-08-26 20:29:00,65.3,51.5,29.88,South,180,1.1,2.5,61,0.00,,---,0.00,VWS V14.01,2013-08-27 03:29:00,
2013-08-26 20:34:00,65.1,51.8,29.88,SE,135,2.0,2.0,62,0.00,,---,0.00,VWS V14.01,2013-08-27 03:34:00,
2013-08-26 20:39:00,64.6,51.3,29.88,South,180,0.0,0.0,62,0.00,,---,0.00,VWS V14.01,2013-08-27 03:39:00,
2013-08-26 20:44:00,64.2,51.4,29.88,South,180,0.0,1.1,63,0.00,,---,0.00,VWS V14.01,2013-08-27 03:44:00,
2013-08-26 20:49:00,63.9,51.5,29.88,SSE,158,1.1,1.1,64,0.00,,---,0.00,VWS V14.01,2013-08-27 03:49:00,
2013-08-26 20:54:00,63.7,51.3,29.88,SSE,158,0.0,0.0,64,0.00,,---,0.00,VWS V14.01,2013-08-27 03:54:00,
2013-08-26 20:59:00,63.5,51.5,29.88,SSE,158,0.0,0.0,65,0.00,,---,0.00,VWS V14.01,2013-08-27 03:59:00,
2013-08-26 21:01:00,63.7,51.7,29.88,SSE,158,0.0,0.0,65,0.00,,---,0.00,VWS V14.01,2013-08-27 04:01:00,
2013-08-26 21:02:00,63.7,51.7,29.88,SE,135,0.0,0.0,65,0.00,,---,0.00,VWS V14.01,2013-08-27 04:02:00,
2013-08-26 21:03:00,63.5,51.5,29.88,SE,135,0.0,0.0,65,0.00,,---,0.00,VWS V14.01,2013-08-27 04:03:00,
2013-08-26 21:07:00,63.1,51.2,29.88,SSE,158,0.0,0.9,65,0.00,,---,0.00,VWS V14.01,2013-08-27 04:07:00,
2013-08-26 21:12:00,62.8,50.8,29.88,SSE,158,0.0,0.0,65,0.00,,---,0.00,VWS V14.01,2013-08-27 04:12:00,
2013-08-26 21:17:00,62.6,51.1,29.88,SSE,158,0.0,2.0,66,0.00,,---,0.00,VWS V14.01,2013-08-27 04:17:00,
2013-08-26 21:22:00,62.4,50.9,29.91,SSE,158,0.0,0.0,66,0.00,,---,0.00,VWS V14.01,2013-08-27 04:22:00,
2013-08-26 21:27:00,62.2,50.8,29.91,SE,135,0.0,0.0,66,0.00,,---,0.00,VWS V14.01,2013-08-27 04:27:00,
2013-08-26 21:32:00,62.1,51.0,29.91,WNW,292,0.0,1.1,67,0.00,,---,0.00,VWS V14.01,2013-08-27 04:32:00,
2013-08-26 21:37:00,61.9,50.8,29.91,WNW,292,0.0,1.3,67,0.00,,---,0.00,VWS V14.01,2013-08-27 04:37:00,
2013-08-26 21:42:00,61.9,51.2,29.91,WNW,292,0.0,0.0,68,0.00,,---,0.00,VWS V14.01,2013-08-27 04:42:00,
2013-08-26 21:47:00,62.2,51.6,29.91,WNW,292,0.0,0.0,68,0.00,,---,0.00,VWS V14.01,2013-08-27 04:47:00,
2013-08-26 21:52:00,61.7,51.0,29.91,West,270,0.0,0.0,68,0.00,,---,0.00,VWS V14.01,2013-08-27 04:52:00,
2013-08-26 21:57:00,61.9,51.2,29.91,SW,225,0.0,0.0,68,0.00,,---,0.00,VWS V14.01,2013-08-27 04:57:00,
2013-08-26 22:02:00,61.7,51.4,29.91,SW,225,0.0,0.0,69,0.00,,---,0.00,VWS V14.01,2013-08-27 05:02:00,
2013-08-26 22:07:00,61.3,51.1,29.88,SW,225,0.0,0.0,69,0.00,,---,0.00,VWS V14.01,2013-08-27 05:07:00,
2013-08-26 22:12:00,61.2,50.9,29.88,SW,225,0.0,0.0,69,0.00,,---,0.00,VWS V14.01,2013-08-27 05:12:00,
2013-08-26 22:17:00,61.2,51.3,29.88,SW,225,0.0,0.0,70,0.00,,---,0.00,VWS V14.01,2013-08-27 05:17:00,
2013-08-26 22:22:00,60.6,50.8,29.91,South,180,1.1,1.3,70,0.00,,---,0.00,VWS V14.01,2013-08-27 05:22:00,
2013-08-26 22:27:00,60.6,50.8,29.91,South,180,0.0,1.3,70,0.00,,---,0.00,VWS V14.01,2013-08-27 05:27:00,
2013-08-26 22:32:00,60.3,50.5,29.91,SE,135,0.0,0.0,70,0.00,,---,0.00,VWS V14.01,2013-08-27 05:32:00,
2013-08-26 22:37:00,60.1,50.7,29.91,SE,135,2.2,2.2,71,0.00,,---,0.00,VWS V14.01,2013-08-27 05:37:00,
2013-08-26 22:42:00,60.1,50.7,29.91,SE,135,0.0,2.2,71,0.00,,---,0.00,VWS V14.01,2013-08-27 05:42:00,
2013-08-26 22:47:00,60.1,50.7,29.91,SE,135,0.0,1.6,71,0.00,,---,0.00,VWS V14.01,2013-08-27 05:47:00,
2013-08-26 22:52:00,59.9,50.5,29.91,SE,135,0.0,2.0,71,0.00,,---,0.00,VWS V14.01,2013-08-27 05:52:00,
2013-08-26 22:57:00,60.1,50.7,29.91,SE,135,0.0,0.0,71,0.00,,---,0.00,VWS V14.01,2013-08-27 05:57:00,
2013-08-26 23:02:00,60.1,50.7,29.91,East,90,0.0,2.0,71,0.00,,---,0.00,VWS V14.01,2013-08-27 06:02:00,
2013-08-26 23:07:00,60.1,51.0,29.91,East,90,1.3,1.6,72,0.00,,---,0.00,VWS V14.01,2013-08-27 06:07:00,
2013-08-26 23:12:00,60.3,51.2,29.91,ENE,68,0.0,1.3,72,0.00,,---,0.00,VWS V14.01,2013-08-27 06:12:00,
2013-08-26 23:17:00,60.1,51.0,29.91,SE,135,0.0,0.0,72,0.00,,---,0.00,VWS V14.01,2013-08-27 06:17:00,
2013-08-26 23:22:00,59.5,50.5,29.91,SE,135,0.0,0.0,72,0.00,,---,0.00,VWS V14.01,2013-08-27 06:22:00,
2013-08-26 23:27:00,59.4,50.3,29.91,SSE,158,0.0,0.0,72,0.00,,---,0.00,VWS V14.01,2013-08-27 06:27:00,
2013-08-26 23:32:00,59.2,50.2,29.91,SSE,158,0.0,0.0,72,0.00,,---,0.00,VWS V14.01,2013-08-27 06:32:00,
2013-08-26 23:37:00,59.0,50.0,29.91,SSE,158,0.0,0.0,72,0.00,,---,0.00,VWS V14.01,2013-08-27 06:37:00,
2013-08-26 23:42:00,59.2,50.5,29.91,SSE,158,0.0,0.9,73,0.00,,---,0.00,VWS V14.01,2013-08-27 06:42:00,
2013-08-26 23:47:00,59.2,50.5,29.91,SSE,158,0.0,0.0,73,0.00,,---,0.00,VWS V14.01,2013-08-27 06:47:00,
2013-08-26 23:52:00,59.0,50.4,29.88,SSE,158,0.0,0.0,73,0.00,,---,0.00,VWS V14.01,2013-08-27 06:52:00,
2013-08-26 23:57:00,59.2,50.5,29.88,NE,45,1.1,1.1,73,0.00,,---,0.00,VWS V14.01,2013-08-27 06:57:00,